Time;durP1;ratioP1;P1;durP2;ratioP2;P2;SDS_P1;SDS_P2;PMS_P1;PMS_P2;Temp;Humidity;BMP_temperature;BMP_pressure;BME280_temperature;BME280_humidity;BME280_pressure;Samples;Min_cycle;Max_cycle;Signal;HPM_P1;HPM_P2
2022/09/22 09:45:14;;;;;;;3.33;3.03;;;15.80;99.90;;;;;;5003425;28;20998;-66
2022/09/22 09:47:46;;;;;;;5.00;4.50;;;15.70;99.90;;;;;;5012524;28;20457;-67
2022/09/22 09:50:13;;;;;;;4.20;3.77;;;15.70;99.90;;;;;;5012275;28;20493;-67
2022/09/22 09:52:39;;;;;;;4.97;3.67;;;15.70;99.90;;;;;;5012577;28;20460;-67
2022/09/22 09:55:21;;;;;;;8.27;3.63;;;15.50;99.90;;;;;;5011436;28;20899;-67
2022/09/22 09:58:10;;;;;;;3.50;3.20;;;15.40;99.90;;;;;;5012376;28;20168;-67
2022/09/22 10:00:57;;;;;;;3.77;3.07;;;15.30;99.90;;;;;;5012130;28;20534;-68
2022/09/22 10:03:26;;;;;;;3.90;3.50;;;15.70;99.90;;;;;;5012480;28;20473;-67
2022/09/22 10:06:03;;;;;;;3.50;2.90;;;16.10;99.90;;;;;;5012356;28;20411;-65
2022/09/22 10:08:35;;;;;;;3.87;3.00;;;16.10;99.90;;;;;;5005595;28;20923;-68
2022/09/22 10:11:03;;;;;;;7.00;3.50;;;16.00;99.90;;;;;;5011758;28;20454;-66
2022/09/22 10:13:34;;;;;;;5.60;5.10;;;16.20;99.90;;;;;;5012031;28;20435;-67
2022/09/22 10:16:20;;;;;;;6.83;4.20;;;16.10;99.90;;;;;;5012250;28;20768;-67
2022/09/22 10:18:48;;;;;;;4.37;3.27;;;16.40;99.90;;;;;;5012059;28;20717;-65
2022/09/22 10:21:20;;;;;;;4.00;3.37;;;15.90;99.90;;;;;;5011920;28;20470;-67
2022/09/22 10:23:53;;;;;;;3.00;2.70;;;16.20;99.90;;;;;;5011758;28;20408;-67
2022/09/22 10:26:28;;;;;;;2.63;2.43;;;15.90;99.90;;;;;;5011836;28;20504;-66
2022/09/22 10:29:34;;;;;;;6.10;2.73;;;15.90;99.90;;;;;;5011929;28;20407;-67
2022/09/22 10:32:15;;;;;;;4.80;4.20;;;16.30;99.90;;;;;;5009628;28;20427;-66
2022/09/22 10:34:49;;;;;;;2.73;2.53;;;16.00;99.90;;;;;;5012076;28;20407;-66
2022/09/22 10:37:19;;;;;;;4.10;2.30;;;16.30;99.90;;;;;;5011724;28;20482;-66
2022/09/22 10:39:53;;;;;;;4.60;3.10;;;16.20;99.90;;;;;;5011965;28;20451;-65
2022/09/22 10:42:24;;;;;;;4.43;2.90;;;16.20;99.90;;;;;;5011460;28;20489;-66
2022/09/22 10:44:51;;;;;;;7.03;4.40;;;16.20;99.90;;;;;;5011848;28;20405;-66
2022/09/22 10:47:50;;;;;;;12.23;3.70;;;16.00;99.90;;;;;;5011535;28;20407;-66
2022/09/22 10:50:54;;;;;;;4.10;2.80;;;16.00;99.90;;;;;;5010453;28;20442;-66
2022/09/22 10:53:31;;;;;;;4.30;2.77;;;16.20;99.90;;;;;;5010284;28;20415;-67
2022/09/22 10:56:21;;;;;;;3.40;2.27;;;15.90;99.90;;;;;;5011173;28;20391;-66
2022/09/22 10:58:49;;;;;;;7.10;2.97;;;16.20;99.90;;;;;;5010492;28;20431;-65
2022/09/22 11:01:25;;;;;;;2.77;2.27;;;16.30;99.90;;;;;;5011914;28;20435;-68
2022/09/22 11:03:56;;;;;;;5.40;3.20;;;16.20;99.90;;;;;;5011248;28;20415;-66
2022/09/22 11:12:38;;;;;;;3.77;2.37;;;16.60;99.90;;;;;;5011785;28;20406;-67
2022/09/22 11:15:41;;;;;;;9.63;3.00;;;16.20;99.90;;;;;;5012188;28;20415;-67
2022/09/22 11:18:38;;;;;;;4.93;2.67;;;16.30;99.90;;;;;;5006441;28;20423;-68
2022/09/22 11:21:30;;;;;;;6.00;4.13;;;16.50;99.90;;;;;;5011409;28;20493;-68
2022/09/22 11:24:22;;;;;;;4.17;2.70;;;16.80;99.90;;;;;;5013147;28;20437;-66
2022/09/22 11:26:52;;;;;;;3.33;3.00;;;16.60;99.90;;;;;;4999335;28;20411;-67
2022/09/22 11:29:44;;;;;;;3.37;2.70;;;16.80;99.90;;;;;;5013549;28;20403;-67
2022/09/22 11:32:31;;;;;;;5.57;2.57;;;16.60;99.90;;;;;;5012406;28;20414;-68
2022/09/22 11:35:47;;;;;;;6.13;3.10;;;16.80;99.90;;;;;;5010999;28;20414;-67
2022/09/22 11:38:36;;;;;;;5.10;2.30;;;16.70;99.90;;;;;;4984810;28;20467;-68
2022/09/22 11:41:13;;;;;;;4.30;2.90;;;16.50;99.90;;;;;;5008401;28;20471;-67
2022/09/22 11:43:47;;;;;;;3.37;2.97;;;16.70;99.90;;;;;;5011128;28;20562;-67
2022/09/22 11:46:21;;;;;;;18.00;3.40;;;16.60;99.90;;;;;;5011630;28;20441;-67
2022/09/22 11:48:58;;;;;;;6.67;2.83;;;16.80;99.90;;;;;;5009416;28;20435;-68
2022/09/22 11:52:08;;;;;;;14.37;4.37;;;16.70;99.90;;;;;;4996358;28;20927;-67
2022/09/22 11:54:52;;;;;;;10.60;3.67;;;16.70;99.90;;;;;;5004769;28;20400;-68
2022/09/22 11:57:22;;;;;;;14.77;4.30;;;16.70;99.90;;;;;;5001516;28;20510;-67
2022/09/22 12:00:01;;;;;;;8.07;3.40;;;16.50;99.90;;;;;;5007486;28;20495;-67
2022/09/22 12:02:45;;;;;;;4.30;3.77;;;16.70;99.90;;;;;;5000838;28;20466;-67
2022/09/22 12:05:37;;;;;;;5.97;3.27;;;16.60;99.90;;;;;;5009332;28;20403;-68
2022/09/22 12:08:19;;;;;;;3.30;3.00;;;16.80;99.90;;;;;;5010239;28;20416;-67
2022/09/22 12:10:46;;;;;;;7.33;3.50;;;16.90;99.90;;;;;;5010109;28;20489;-68
2022/09/22 12:13:32;;;;;;;4.73;3.43;;;16.60;99.90;;;;;;5010475;28;20522;-69
2022/09/22 12:16:05;;;;;;;4.10;3.00;;;16.70;99.90;;;;;;5010011;28;20426;-68
2022/09/22 12:18:58;;;;;;;3.30;3.00;;;16.80;99.90;;;;;;5010379;28;20704;-67
2022/09/22 12:21:29;;;;;;;5.70;2.43;;;16.60;99.90;;;;;;5010890;28;20473;-68
2022/09/22 12:23:59;;;;;;;5.73;3.50;;;16.40;99.90;;;;;;5014344;28;20407;-68
2022/09/22 12:26:26;;;;;;;2.87;2.57;;;16.50;99.90;;;;;;5014359;28;20395;-68
2022/09/22 12:28:52;;;;;;;5.73;3.40;;;16.70;99.90;;;;;;5014156;28;20392;-68
2022/09/22 12:31:19;;;;;;;3.47;2.80;;;16.80;99.90;;;;;;5013781;28;20510;-69
2022/09/22 12:33:52;;;;;;;5.60;4.50;;;16.80;99.90;;;;;;5013943;28;20462;-68
2022/09/22 12:36:30;;;;;;;9.33;3.13;;;16.90;99.90;;;;;;5013946;28;20442;-69
2022/09/22 12:39:12;;;;;;;3.67;2.90;;;17.10;99.90;;;;;;5013517;28;20759;-68
2022/09/22 12:41:47;;;;;;;3.13;2.83;;;17.20;99.90;;;;;;5013174;28;20438;-68
2022/09/22 12:44:18;;;;;;;7.27;3.90;;;17.10;99.90;;;;;;5014005;28;20410;-67
2022/09/22 12:46:44;;;;;;;6.17;2.73;;;17.10;99.90;;;;;;5013745;28;20414;-68
2022/09/22 12:49:15;;;;;;;3.70;2.47;;;17.00;99.90;;;;;;5013929;28;20426;-68
2022/09/22 12:51:41;;;;;;;5.30;4.80;;;17.00;99.90;;;;;;5013363;28;20410;-69
2022/09/22 12:54:22;;;;;;;3.47;2.50;;;17.00;99.90;;;;;;5013779;28;20880;-67
2022/09/22 12:57:20;;;;;;;3.27;2.97;;;16.70;99.90;;;;;;5013619;28;20168;-67
2022/09/22 12:59:54;;;;;;;4.53;2.90;;;16.60;99.90;;;;;;5013502;28;20854;-68
2022/09/22 13:02:30;;;;;;;5.37;2.93;;;17.00;99.90;;;;;;5013012;28;20937;-66
2022/09/22 13:04:59;;;;;;;2.90;2.60;;;17.10;99.90;;;;;;5013618;28;20407;-66
2022/09/22 13:07:34;;;;;;;3.50;2.83;;;17.00;99.90;;;;;;5013814;28;20411;-67
2022/09/22 13:10:26;;;;;;;3.93;2.80;;;16.80;99.90;;;;;;4993833;28;20436;-66
2022/09/22 13:13:04;;;;;;;4.83;3.00;;;16.90;99.90;;;;;;4970679;28;20452;-66
2022/09/22 13:15:48;;;;;;;3.20;2.77;;;17.00;99.90;;;;;;4993608;28;20523;-66
2022/09/22 13:18:37;;;;;;;6.57;5.47;;;16.90;99.90;;;;;;5000904;28;20451;-66
2022/09/22 13:21:21;;;;;;;7.70;2.87;;;16.90;99.90;;;;;;5010947;28;21009;-67
2022/09/22 13:23:53;;;;;;;2.87;2.53;;;16.80;99.90;;;;;;5012203;28;20614;-67
2022/09/22 13:26:24;;;;;;;2.47;2.27;;;16.90;99.90;;;;;;5000342;28;20412;-67
2022/09/22 13:29:09;;;;;;;7.33;2.60;;;16.90;99.90;;;;;;4998903;28;20415;-68
2022/09/22 13:31:55;;;;;;;2.80;2.30;;;17.00;99.90;;;;;;5006563;28;20442;-69
2022/09/22 13:34:29;;;;;;;2.73;2.43;;;17.20;99.90;;;;;;5012566;28;20538;-68
2022/09/22 13:37:03;;;;;;;4.57;2.70;;;17.00;99.90;;;;;;5012593;28;20753;-68
2022/09/22 13:39:36;;;;;;;5.50;2.50;;;16.90;99.90;;;;;;5012568;28;20443;-68
2022/09/22 13:42:24;;;;;;;4.03;2.60;;;16.90;99.90;;;;;;5012712;28;20489;-68
2022/09/22 13:45:17;;;;;;;3.53;2.50;;;17.00;99.90;;;;;;4993523;28;20419;-66
2022/09/22 13:47:46;;;;;;;2.97;2.77;;;16.90;99.90;;;;;;4996676;28;20446;-67
2022/09/22 13:50:18;;;;;;;3.60;2.90;;;16.80;99.90;;;;;;5018414;28;20542;-68
2022/09/22 13:52:47;;;;;;;4.10;2.93;;;16.50;99.90;;;;;;5012728;28;20418;-68
2022/09/22 13:55:33;;;;;;;5.13;2.90;;;16.50;99.90;;;;;;5012425;28;20421;-68
2022/09/22 13:58:01;;;;;;;9.27;2.43;;;16.50;99.90;;;;;;5012244;28;20415;-69
2022/09/22 14:00:43;;;;;;;4.90;2.60;;;16.40;99.90;;;;;;5011979;28;20517;-67
2022/09/22 14:03:17;;;;;;;2.70;2.43;;;16.50;99.90;;;;;;5012073;28;20399;-68
2022/09/22 14:05:44;;;;;;;4.57;2.43;;;16.50;99.90;;;;;;5012738;28;20410;-69
2022/09/22 14:08:13;;;;;;;6.03;3.70;;;16.50;99.90;;;;;;5012664;28;20490;-67
2022/09/22 14:10:41;;;;;;;4.00;2.80;;;16.80;99.90;;;;;;5012028;28;20515;-68
2022/09/22 14:13:40;;;;;;;3.80;2.77;;;17.00;99.90;;;;;;5012431;28;20415;-68
2022/09/22 14:16:19;;;;;;;3.60;2.50;;;17.00;99.90;;;;;;5003066;28;20946;-68
2022/09/22 14:18:49;;;;;;;3.50;2.37;;;16.90;99.90;;;;;;5012048;28;20450;-67
2022/09/22 14:21:15;;;;;;;9.43;2.63;;;16.60;99.90;;;;;;5011999;28;20422;-68
2022/09/22 14:23:44;;;;;;;5.13;2.40;;;16.60;99.90;;;;;;5012465;28;20383;-68
2022/09/22 14:26:38;;;;;;;13.37;3.00;;;16.50;99.90;;;;;;5012179;28;20423;-67
2022/09/22 14:29:13;;;;;;;4.90;2.60;;;16.50;99.90;;;;;;5011211;28;20583;-68
2022/09/22 14:31:43;;;;;;;4.20;2.83;;;16.70;99.90;;;;;;5010430;28;20402;-69
2022/09/22 14:34:12;;;;;;;5.27;2.73;;;16.60;99.90;;;;;;4999214;28;20450;-68
2022/09/22 14:36:43;;;;;;;5.10;2.50;;;16.70;99.90;;;;;;5011958;28;20431;-68
2022/09/22 14:39:17;;;;;;;4.70;2.70;;;16.80;99.90;;;;;;5012012;28;21535;-66
2022/09/22 14:41:50;;;;;;;13.47;5.00;;;16.80;99.90;;;;;;5012236;28;20449;-68
2022/09/22 14:44:41;;;;;;;2.97;2.67;;;16.80;99.90;;;;;;5011124;28;20790;-67
2022/09/22 14:47:19;;;;;;;3.00;2.67;;;16.80;99.90;;;;;;5012082;28;20399;-67
2022/09/22 14:49:47;;;;;;;3.20;2.30;;;16.80;99.90;;;;;;5011566;28;20492;-67
2022/09/22 14:52:24;;;;;;;3.20;2.37;;;16.80;99.90;;;;;;5011866;28;20852;-67
2022/09/22 14:54:52;;;;;;;7.60;2.50;;;16.80;99.90;;;;;;5011665;28;20411;-67
2022/09/22 14:57:18;;;;;;;8.70;3.23;;;16.90;99.90;;;;;;5011055;28;20912;-66
2022/09/22 15:02:57;;;;;;;4.07;2.40;;;16.70;99.90;;;;;;4994930;28;20451;-66
2022/09/22 15:05:29;;;;;;;4.77;2.27;;;16.80;99.90;;;;;;4989311;28;20408;-67
2022/09/22 15:07:56;;;;;;;3.10;2.20;;;16.80;99.90;;;;;;5000324;28;20411;-67
2022/09/22 15:10:26;;;;;;;3.70;2.50;;;16.80;99.90;;;;;;5011439;28;20431;-68
2022/09/22 15:12:53;;;;;;;2.50;2.30;;;16.80;99.90;;;;;;5011439;28;20857;-67
2022/09/22 15:15:29;;;;;;;11.57;3.10;;;16.70;99.90;;;;;;5010728;28;20490;-67
2022/09/22 15:18:15;;;;;;;2.17;1.97;;;16.80;99.90;;;;;;5026086;28;20461;-67
2022/09/22 15:20:56;;;;;;;3.37;2.57;;;16.70;99.90;;;;;;5009568;28;20896;-66
2022/09/22 15:23:34;;;;;;;4.77;2.90;;;16.40;99.90;;;;;;5011042;28;20394;-67
2022/09/22 15:26:02;;;;;;;4.43;2.90;;;16.50;99.90;;;;;;5010925;28;20400;-67
2022/09/22 15:28:30;;;;;;;4.20;2.70;;;16.60;99.90;;;;;;5010837;28;20457;-67
2022/09/22 15:30:56;;;;;;;6.33;3.10;;;16.60;99.90;;;;;;5011323;28;20477;-67
2022/09/22 15:33:22;;;;;;;6.83;3.30;;;16.60;99.90;;;;;;5011679;28;20411;-67
2022/09/22 15:35:55;;;;;;;2.37;2.10;;;16.50;99.90;;;;;;5009620;28;20411;-67
2022/09/22 15:38:28;;;;;;;2.50;2.23;;;16.40;99.90;;;;;;5010607;28;20438;-68
2022/09/22 15:40:54;;;;;;;3.47;2.60;;;16.30;99.90;;;;;;5010306;28;20466;-67
2022/09/22 15:43:22;;;;;;;2.40;2.20;;;16.40;99.90;;;;;;5009561;28;20419;-67
2022/09/22 15:46:27;;;;;;;3.10;2.50;;;16.50;99.90;;;;;;5010530;28;20461;-66
2022/09/22 15:48:58;;;;;;;5.87;2.67;;;16.40;99.90;;;;;;5009318;28;20437;-67
2022/09/22 15:51:24;;;;;;;4.63;2.17;;;16.40;99.90;;;;;;5009883;28;20946;-67
2022/09/22 15:53:50;;;;;;;5.03;2.80;;;16.40;99.90;;;;;;5010534;28;20514;-67
2022/09/22 15:56:18;;;;;;;2.80;2.20;;;16.50;99.90;;;;;;5012553;28;20476;-66
2022/09/22 15:58:44;;;;;;;2.90;2.60;;;16.40;99.90;;;;;;5014349;28;20218;-66
2022/09/22 16:01:10;;;;;;;3.13;2.83;;;16.40;99.90;;;;;;5029023;28;20462;-68
2022/09/22 16:03:37;;;;;;;3.60;2.80;;;16.40;99.90;;;;;;5009608;28;20458;-66
2022/09/22 16:06:06;;;;;;;2.70;2.40;;;16.10;99.90;;;;;;5012078;28;20180;-67
2022/09/22 16:08:40;;;;;;;5.60;3.27;;;15.90;99.90;;;;;;5012061;28;20468;-66
2022/09/22 16:11:10;;;;;;;3.30;3.00;;;16.00;99.90;;;;;;5010476;28;20542;-67
2022/09/22 16:13:37;;;;;;;5.70;3.03;;;16.10;99.90;;;;;;5015835;28;20487;-67
2022/09/22 16:16:02;;;;;;;4.83;3.03;;;16.10;99.90;;;;;;5014586;28;20419;-67
2022/09/22 16:18:31;;;;;;;5.90;2.50;;;16.10;99.90;;;;;;5015095;28;20486;-67
2022/09/22 16:21:25;;;;;;;6.93;2.70;;;16.10;99.90;;;;;;5014060;28;20934;-67
2022/09/22 16:23:55;;;;;;;2.77;2.43;;;16.10;99.90;;;;;;5013351;28;20465;-67
2022/09/22 16:26:21;;;;;;;5.97;2.87;;;16.00;99.90;;;;;;5014395;28;20407;-67
2022/09/22 16:28:47;;;;;;;3.37;2.70;;;16.10;99.90;;;;;;5014431;28;20417;-67
2022/09/22 16:31:14;;;;;;;4.43;3.13;;;15.90;99.90;;;;;;5014292;28;20435;-67
2022/09/22 16:33:40;;;;;;;3.37;3.07;;;15.80;99.90;;;;;;5014287;28;20251;-67
2022/09/22 16:36:06;;;;;;;3.70;2.37;;;15.80;99.90;;;;;;5013969;28;20407;-68
2022/09/22 16:38:34;;;;;;;3.90;3.03;;;15.70;99.90;;;;;;5012873;28;20439;-67
2022/09/22 16:41:00;;;;;;;3.33;2.70;;;15.60;99.90;;;;;;5013303;28;20485;-69
2022/09/22 16:43:26;;;;;;;3.00;2.70;;;15.50;99.90;;;;;;5012628;28;20890;-68
2022/09/22 16:48:40;;;;;;;5.70;3.13;;;15.40;99.90;;;;;;5010658;28;20194;-68
2022/09/22 16:51:08;;;;;;;8.13;3.57;;;15.30;99.90;;;;;;5012789;28;20442;-68
2022/09/22 16:53:38;;;;;;;6.10;3.40;;;15.30;99.90;;;;;;5003103;28;20955;-68
2022/09/22 16:56:04;;;;;;;8.30;3.37;;;15.40;99.90;;;;;;5013404;28;20534;-68
2022/09/22 16:58:30;;;;;;;8.07;3.50;;;15.30;99.90;;;;;;5013452;28;20403;-69
2022/09/22 17:01:01;;;;;;;8.20;3.47;;;15.20;99.90;;;;;;5012157;28;20493;-67
2022/09/22 17:03:27;;;;;;;3.83;2.87;;;15.20;99.90;;;;;;5011407;28;20169;-65
2022/09/22 17:06:07;;;;;;;3.50;3.20;;;15.20;99.90;;;;;;5011650;28;20493;-67
2022/09/22 17:08:36;;;;;;;8.40;3.60;;;15.20;99.90;;;;;;5010863;28;20520;-68
2022/09/22 17:11:03;;;;;;;18.20;4.67;;;15.10;99.90;;;;;;5010311;28;20451;-66
2022/09/22 17:13:30;;;;;;;5.17;3.10;;;15.00;99.90;;;;;;5011821;28;20431;-68
2022/09/22 17:16:09;;;;;;;7.70;4.17;;;14.90;99.90;;;;;;5011559;28;20514;-66
2022/09/22 17:18:38;;;;;;;21.30;5.00;;;14.80;99.90;;;;;;4999837;28;20542;-66
2022/09/22 17:21:07;;;;;;;10.70;4.20;;;15.00;99.90;;;;;;5009538;28;20473;-66
2022/09/22 17:23:34;;;;;;;6.93;3.50;;;15.20;99.90;;;;;;5010450;28;20797;-67
2022/09/22 17:25:59;;;;;;;16.20;5.50;;;15.20;99.90;;;;;;5009660;28;20437;-66
2022/09/22 17:28:27;;;;;;;28.43;6.47;;;15.20;99.90;;;;;;5016047;28;20419;-67
2022/09/22 17:30:57;;;;;;;51.30;8.60;;;15.30;99.90;;;;;;5035200;28;20557;-66
2022/09/22 17:33:27;;;;;;;34.93;7.37;;;15.30;99.90;;;;;;5015535;28;20431;-68
2022/09/22 17:36:00;;;;;;;19.77;6.53;;;15.30;99.90;;;;;;5012268;28;20415;-68
2022/09/22 17:38:30;;;;;;;26.97;7.07;;;15.30;99.90;;;;;;5007408;28;20493;-67
2022/09/22 17:41:06;;;;;;;4.37;3.83;;;15.20;99.90;;;;;;5010269;28;21129;-66
2022/09/22 17:43:42;;;;;;;4.30;3.47;;;15.10;99.90;;;;;;5010060;28;20419;-68
2022/09/22 17:46:11;;;;;;;7.97;3.53;;;15.10;99.90;;;;;;5007832;28;20431;-68
2022/09/22 17:57:27;;;;;;;5.03;3.70;;;14.80;99.90;;;;;;5013525;28;20434;-67
2022/09/22 17:59:55;;;;;;;7.30;4.03;;;14.80;99.90;;;;;;5012990;28;20826;-67
2022/09/22 18:02:22;;;;;;;6.33;4.43;;;14.80;99.90;;;;;;5003118;28;20416;-67
2022/09/22 18:04:48;;;;;;;5.97;4.60;;;14.70;99.90;;;;;;5013201;28;20427;-67
2022/09/22 18:07:22;;;;;;;6.97;4.33;;;14.70;99.90;;;;;;5012740;28;20549;-67
2022/09/22 18:09:49;;;;;;;5.03;4.60;;;14.60;99.90;;;;;;5009376;28;20435;-68
2022/09/22 18:12:21;;;;;;;4.67;4.27;;;14.60;99.90;;;;;;5012682;28;20895;-67
2022/09/22 18:14:50;;;;;;;9.87;5.03;;;14.60;99.90;;;;;;5028068;28;20489;-67
2022/09/22 18:17:22;;;;;;;6.03;5.00;;;14.50;99.90;;;;;;5006592;28;20481;-68
2022/09/22 18:19:48;;;;;;;5.07;4.57;;;14.50;99.90;;;;;;5008808;28;20494;-68
2022/09/22 18:22:19;;;;;;;8.17;6.20;;;14.50;99.90;;;;;;5008479;28;20477;-66
2022/09/22 18:24:48;;;;;;;7.70;5.67;;;14.40;99.90;;;;;;5010076;28;20181;-68
2022/09/22 18:27:16;;;;;;;17.93;5.33;;;14.30;99.90;;;;;;5009777;28;20514;-69
2022/09/22 18:29:42;;;;;;;6.80;6.10;;;14.30;99.90;;;;;;5009677;28;21002;-68
2022/09/22 18:32:08;;;;;;;5.10;4.60;;;14.30;99.90;;;;;;5007050;28;20434;-68
2022/09/22 18:34:34;;;;;;;9.20;5.33;;;14.20;99.90;;;;;;5009739;28;20427;-69
2022/09/22 18:37:03;;;;;;;16.03;5.30;;;14.30;99.90;;;;;;5009664;28;20562;-67
2022/09/22 18:39:30;;;;;;;6.10;4.50;;;14.30;99.90;;;;;;5010054;28;20455;-68
2022/09/22 18:41:56;;;;;;;6.13;4.43;;;14.20;99.90;;;;;;5010003;28;20423;-68
2022/09/22 18:44:24;;;;;;;8.40;6.77;;;14.20;99.90;;;;;;5008758;28;20891;-69
2022/09/22 18:46:50;;;;;;;5.90;5.00;;;14.20;99.90;;;;;;5010883;28;20427;-66
2022/09/22 18:49:16;;;;;;;5.57;4.93;;;14.20;99.90;;;;;;5008401;28;21026;-68
2022/09/22 18:51:47;;;;;;;6.03;4.70;;;14.10;99.90;;;;;;5011373;28;20443;-67
2022/09/22 18:54:15;;;;;;;7.87;4.80;;;14.10;99.90;;;;;;5010473;28;20426;-68
2022/09/22 18:56:43;;;;;;;9.03;5.10;;;14.10;99.90;;;;;;5011533;28;20474;-67
2022/09/22 18:59:22;;;;;;;5.47;4.97;;;14.10;99.90;;;;;;5009429;28;20434;-68
2022/09/22 19:01:48;;;;;;;5.60;4.20;;;14.00;99.90;;;;;;5006244;28;20426;-68
2022/09/22 19:04:17;;;;;;;5.40;4.90;;;13.90;99.90;;;;;;5008999;28;21128;-69
2022/09/22 19:09:28;;;;;;;7.47;4.73;;;13.70;99.90;;;;;;5010038;28;20446;-68
2022/09/22 19:11:54;;;;;;;6.47;5.83;;;13.70;99.90;;;;;;5009902;28;20439;-68
2022/09/22 19:14:20;;;;;;;8.93;6.30;;;13.70;99.90;;;;;;5006175;28;20572;-67
2022/09/22 19:16:50;;;;;;;9.83;6.33;;;13.60;99.90;;;;;;5009860;28;20522;-67
2022/09/22 19:19:19;;;;;;;12.90;5.63;;;13.60;99.90;;;;;;5009040;28;20443;-68
2022/09/22 19:21:48;;;;;;;7.13;6.43;;;13.60;99.90;;;;;;5005185;28;20510;-69
2022/09/22 19:24:14;;;;;;;6.83;6.13;;;13.60;99.90;;;;;;5008376;28;20462;-67
2022/09/22 19:26:41;;;;;;;9.03;6.60;;;13.70;99.90;;;;;;5008836;28;20546;-67
2022/09/22 19:29:07;;;;;;;8.00;6.47;;;13.60;99.90;;;;;;5009073;28;20176;-68
2022/09/22 19:31:35;;;;;;;7.90;6.07;;;13.60;99.90;;;;;;5008081;28;20439;-68
2022/09/22 19:34:02;;;;;;;7.57;6.00;;;13.70;99.90;;;;;;5005889;28;20446;-68
2022/09/22 19:36:28;;;;;;;9.70;6.37;;;13.70;99.90;;;;;;5003558;28;20484;-68
2022/09/22 19:38:54;;;;;;;5.70;5.10;;;13.70;99.90;;;;;;5008337;28;20514;-68
2022/09/22 19:41:25;;;;;;;5.53;5.00;;;13.70;99.90;;;;;;5007651;28;20224;-69
2022/09/22 19:43:55;;;;;;;10.13;4.73;;;13.60;99.90;;;;;;5009032;28;20431;-68
2022/09/22 19:46:22;;;;;;;6.07;5.57;;;13.60;99.90;;;;;;5005796;28;20510;-69
2022/09/22 19:48:48;;;;;;;8.43;6.30;;;13.60;99.90;;;;;;5008314;28;20467;-68
2022/09/22 19:51:14;;;;;;;7.23;6.53;;;13.50;99.90;;;;;;5007715;28;20939;-68
2022/09/22 19:53:40;;;;;;;8.73;7.07;;;13.50;99.90;;;;;;5008554;28;20715;-67
2022/09/22 19:56:06;;;;;;;8.13;7.20;;;13.50;99.90;;;;;;5007001;28;20435;-68
2022/09/22 19:58:33;;;;;;;11.40;7.50;;;13.50;99.90;;;;;;5008575;28;20529;-68
2022/09/22 20:00:58;;;;;;;10.70;8.10;;;13.50;99.90;;;;;;5008933;28;20211;-66
2022/09/22 20:03:25;;;;;;;8.50;7.63;;;13.50;99.90;;;;;;5007444;28;20525;-66
2022/09/22 20:05:51;;;;;;;14.20;8.40;;;13.50;99.90;;;;;;5006716;28;20649;-66
2022/09/22 20:08:20;;;;;;;11.10;7.40;;;13.40;99.90;;;;;;5007808;28;20431;-67
2022/09/22 20:10:50;;;;;;;12.03;5.90;;;13.40;99.90;;;;;;5009437;28;21223;-67
2022/09/22 20:16:01;;;;;;;9.87;6.60;;;13.30;99.90;;;;;;5005607;28;20426;-68
2022/09/22 20:18:28;;;;;;;9.87;6.90;;;13.30;99.90;;;;;;5003144;28;20434;-68
2022/09/22 20:20:55;;;;;;;6.67;5.97;;;13.30;99.90;;;;;;5008700;28;20478;-67
2022/09/22 20:23:21;;;;;;;8.27;6.33;;;13.20;99.90;;;;;;5007358;28;20795;-68
2022/09/22 20:25:49;;;;;;;16.00;6.70;;;13.10;99.90;;;;;;5000232;28;20434;-68
2022/09/22 20:28:15;;;;;;;42.17;8.87;;;13.20;99.90;;;;;;5005593;28;20487;-69
2022/09/22 20:30:41;;;;;;;15.40;7.37;;;13.20;99.90;;;;;;5006893;28;20455;-68
2022/09/22 20:33:20;;;;;;;10.83;8.27;;;13.10;99.90;;;;;;5008655;28;20179;-68
2022/09/22 20:35:54;;;;;;;15.80;7.13;;;13.10;99.90;;;;;;5007653;28;20473;-67
2022/09/22 20:38:20;;;;;;;13.80;7.10;;;13.10;99.90;;;;;;5008034;28;20438;-68
2022/09/22 20:40:46;;;;;;;18.00;7.07;;;13.10;99.90;;;;;;5004142;28;20467;-68
2022/09/22 20:43:13;;;;;;;12.00;8.30;;;12.90;99.90;;;;;;5010488;28;20303;-66
2022/09/22 20:45:41;;;;;;;12.97;7.43;;;13.00;99.90;;;;;;5011785;28;20427;-68
2022/09/22 20:48:17;;;;;;;14.77;6.93;;;12.90;99.90;;;;;;5012881;28;20435;-67
2022/09/22 20:50:44;;;;;;;9.63;6.07;;;12.90;99.90;;;;;;5011588;28;20459;-68
2022/09/22 20:53:11;;;;;;;14.97;6.90;;;12.90;99.90;;;;;;5011807;28;20431;-68
2022/09/22 20:55:37;;;;;;;9.40;6.73;;;12.90;99.90;;;;;;5008635;28;20467;-68
2022/09/22 20:58:03;;;;;;;9.47;6.20;;;12.80;99.90;;;;;;5025805;28;20411;-68
2022/09/22 21:00:29;;;;;;;7.37;6.67;;;12.80;99.90;;;;;;5013475;28;20554;-68
2022/09/22 21:02:59;;;;;;;10.73;6.50;;;12.70;99.90;;;;;;5013570;28;20498;-68
2022/09/22 21:05:24;;;;;;;11.37;7.10;;;12.80;99.90;;;;;;5014087;28;20173;-69
2022/09/22 21:10:33;;;;;;;9.47;6.50;;;12.70;99.90;;;;;;5012564;28;20415;-69
2022/09/22 21:10:36;;;;;;;7.60;6.13;;;12.60;99.90;;;;;;5012422;28;20192;-67
2022/09/22 21:13:02;;;;;;;8.10;6.00;;;12.60;99.90;;;;;;5013423;28;20438;-69
2022/09/22 21:15:28;;;;;;;9.37;7.40;;;12.70;99.90;;;;;;5013431;28;20664;-69
2022/09/22 21:17:54;;;;;;;12.27;7.60;;;12.60;99.90;;;;;;5013260;28;20454;-68
2022/09/22 21:20:20;;;;;;;6.73;6.00;;;12.70;99.90;;;;;;5013250;28;20498;-67
2022/09/22 21:22:46;;;;;;;8.47;6.70;;;12.60;99.90;;;;;;5013365;28;20621;-68
2022/09/22 21:25:12;;;;;;;7.93;6.23;;;12.60;99.90;;;;;;5013591;28;20948;-69
2022/09/22 21:27:37;;;;;;;22.93;8.07;;;12.50;99.90;;;;;;5013858;28;20219;-68
2022/09/22 21:30:04;;;;;;;18.63;7.87;;;12.40;99.90;;;;;;5013588;28;20258;-68
2022/09/22 21:32:30;;;;;;;12.77;7.60;;;12.40;99.90;;;;;;5014038;28;20177;-69
2022/09/22 21:34:56;;;;;;;8.30;6.53;;;12.30;99.90;;;;;;5013941;28;20892;-68
2022/09/22 21:37:23;;;;;;;8.67;7.10;;;12.10;99.90;;;;;;5012082;28;20454;-67
2022/09/22 21:39:48;;;;;;;7.13;6.50;;;12.10;1.00;;;;;;5012785;28;20601;-69
2022/09/22 21:42:14;;;;;;;6.50;5.90;;;12.20;99.90;;;;;;5010496;28;20885;-68
2022/09/22 21:44:40;;;;;;;15.57;6.60;;;12.10;99.90;;;;;;5028783;28;20191;-66
2022/09/22 21:47:06;;;;;;;6.37;5.57;;;12.30;99.90;;;;;;5012530;28;20184;-67
2022/09/22 21:49:32;;;;;;;6.87;5.60;;;12.10;99.90;;;;;;5013186;28;20891;-66
2022/09/22 21:51:59;;;;;;;7.73;5.73;;;12.10;99.90;;;;;;5013076;28;20474;-66
2022/09/22 21:54:25;;;;;;;8.30;5.17;;;12.10;99.90;;;;;;5012668;28;20392;-68
2022/09/22 21:56:51;;;;;;;5.70;4.90;;;12.10;99.90;;;;;;5013322;28;20426;-64
2022/09/22 21:59:16;;;;;;;20.10;7.33;;;12.00;99.90;;;;;;5013208;28;20547;-65
2022/09/22 22:01:43;;;;;;;6.70;6.10;;;12.10;99.90;;;;;;5013041;28;20176;-66
2022/09/22 22:04:13;;;;;;;8.47;6.47;;;12.20;99.90;;;;;;5028580;28;20180;-65
2022/09/22 22:06:43;;;;;;;10.57;6.33;;;12.10;99.90;;;;;;5012242;28;20801;-64
2022/09/22 22:09:22;;;;;;;10.47;6.50;;;12.00;99.90;;;;;;5006916;28;20438;-66
2022/09/22 22:11:55;;;;;;;7.20;6.50;;;11.70;1.00;;;;;;5011570;28;20419;-65
2022/09/22 22:14:22;;;;;;;6.97;6.37;;;11.80;1.00;;;;;;5002218;28;20442;-65
2022/09/22 22:16:50;;;;;;;7.17;6.47;;;11.90;1.00;;;;;;5012514;28;20446;-65
2022/09/22 22:19:24;;;;;;;7.23;6.53;;;11.90;1.00;;;;;;5012587;28;20498;-65
2022/09/22 22:21:50;;;;;;;11.17;7.10;;;11.80;1.00;;;;;;5012512;28;20920;-66
2022/09/22 22:26:56;;;;;;;9.03;7.30;;;11.80;1.00;;;;;;5012745;28;20404;-63
2022/09/22 22:29:26;;;;;;;12.27;7.97;;;11.80;1.00;;;;;;5012493;28;20470;-65
2022/09/22 22:31:52;;;;;;;8.80;7.90;;;11.80;1.00;;;;;;5012410;28;20411;-64
2022/09/22 22:34:20;;;;;;;8.70;7.53;;;11.80;1.00;;;;;;5012276;28;20534;-64
2022/09/22 22:36:46;;;;;;;6.80;6.10;;;11.80;1.00;;;;;;5012274;28;20160;-64
2022/09/22 22:39:12;;;;;;;8.23;6.60;;;11.80;1.00;;;;;;5012439;28;20851;-64
2022/09/22 22:41:39;;;;;;;15.20;7.50;;;11.70;1.00;;;;;;5011923;28;20319;-62
2022/09/22 22:44:06;;;;;;;20.70;8.73;;;11.70;1.00;;;;;;5012058;28;20419;-64
2022/09/22 22:46:32;;;;;;;13.30;7.40;;;11.80;1.00;;;;;;5012171;28;20892;-65
2022/09/22 22:48:57;;;;;;;9.90;6.60;;;11.80;99.90;;;;;;5011956;28;20430;-62
2022/09/22 22:51:24;;;;;;;16.60;10.30;;;11.60;99.90;;;;;;5011689;28;20200;-63
2022/09/22 22:53:51;;;;;;;39.57;28.57;;;11.60;1.00;;;;;;5012137;28;20175;-61
2022/09/22 22:56:21;;;;;;;23.73;18.03;;;11.70;1.00;;;;;;5011862;28;20410;-63
2022/09/22 22:58:48;;;;;;;12.30;10.80;;;11.70;1.00;;;;;;5011796;28;20768;-66
2022/09/22 23:01:23;;;;;;;11.17;9.17;;;11.60;1.00;;;;;;5011808;28;20455;-66
2022/09/22 23:03:53;;;;;;;16.73;14.73;;;11.40;1.00;;;;;;5011896;28;20419;-65
2022/09/22 23:06:26;;;;;;;15.90;12.17;;;11.50;1.00;;;;;;5011414;28;20517;-66
2022/09/22 23:08:52;;;;;;;16.63;11.60;;;11.30;1.00;;;;;;5011755;28;20407;-65
2022/09/22 23:11:27;;;;;;;14.17;9.90;;;11.40;1.00;;;;;;5011534;28;20485;-65
2022/09/22 23:14:04;;;;;;;20.80;13.53;;;11.30;1.00;;;;;;5011617;28;20442;-65
2022/09/22 23:16:44;;;;;;;10.80;7.07;;;11.50;1.00;;;;;;5011557;28;20406;-64
2022/09/22 23:19:12;;;;;;;18.80;13.43;;;11.30;1.00;;;;;;5011640;28;20454;-66
2022/09/22 23:21:39;;;;;;;13.63;6.90;;;11.40;1.00;;;;;;5011728;28;20546;-65
2022/09/22 23:24:05;;;;;;;10.47;8.40;;;11.40;1.00;;;;;;5012601;28;20422;-68